Time;durP1;ratioP1;P1;durP2;ratioP2;P2;SDS_P1;SDS_P2;PMS_P1;PMS_P2;Temp;Humidity;BMP_temperature;BMP_pressure;BME280_temperature;BME280_humidity;BME280_pressure;Samples;Min_cycle;Max_cycle;Signal;HPM_P1;HPM_P2
2023/02/22 00:00:55;;;;;;;0.60;0.60;;;;;;;6.58;60.69;96778.66;5030285;28;19921;-55
2023/02/22 00:03:25;;;;;;;0.60;0.60;;;;;;;6.71;60.68;96774.69;5029508;28;20057;-56
2023/02/22 00:05:57;;;;;;;0.60;0.60;;;;;;;6.86;60.26;96762.91;5025797;28;20139;-56
2023/02/22 00:08:29;;;;;;;0.50;0.50;;;;;;;7.04;58.31;96768.88;5029604;28;20045;-54
2023/02/22 00:10:56;;;;;;;0.60;0.60;;;;;;;7.12;57.63;96770.66;5045107;28;20057;-56
2023/02/22 00:13:23;;;;;;;0.60;0.60;;;;;;;7.11;57.17;96753.31;5029767;28;20119;-56
2023/02/22 00:15:50;;;;;;;0.60;0.60;;;;;;;7.27;56.82;96778.91;5029706;28;20104;-55
2023/02/22 00:18:18;;;;;;;0.60;0.60;;;;;;;7.20;56.85;96781.50;5026750;28;20085;-56
2023/02/22 00:20:44;;;;;;;0.60;0.60;;;;;;;6.34;60.79;96751.25;5026368;28;20093;-55
2023/02/22 00:23:17;;;;;;;0.60;0.60;;;;;;;6.48;61.39;96784.66;5026018;28;20088;-56
2023/02/22 00:25:45;;;;;;;0.50;0.50;;;;;;;6.69;60.67;96796.25;5026346;28;20084;-54
2023/02/22 00:28:14;;;;;;;0.50;0.50;;;;;;;6.30;61.25;96709.09;5025813;28;20091;-56
2023/02/22 00:30:43;;;;;;;0.60;0.60;;;;;;;6.91;60.99;96787.41;5026594;28;20136;-54
2023/02/22 00:33:12;;;;;;;0.50;0.50;;;;;;;7.03;59.02;96779.09;5026027;28;20080;-56
2023/02/22 00:35:40;;;;;;;0.50;0.50;;;;;;;7.08;57.92;96787.09;5026310;28;20053;-53
2023/02/22 00:38:07;;;;;;;0.50;0.50;;;;;;;7.26;56.62;96793.06;5025952;28;20087;-54
2023/02/22 00:40:34;;;;;;;0.60;0.60;;;;;;;7.39;56.97;96781.59;5026095;28;20147;-56
2023/02/22 00:43:03;;;;;;;0.60;0.60;;;;;;;7.31;56.94;96763.28;5026185;28;20103;-55
2023/02/22 00:45:32;;;;;;;0.60;0.60;;;;;;;7.23;57.56;96761.53;5026322;28;20140;-56
2023/02/22 00:47:59;;;;;;;0.60;0.60;;;;;;;7.20;56.04;96739.38;5026259;28;20140;-56
2023/02/22 00:50:29;;;;;;;0.50;0.50;;;;;;;7.16;57.83;96777.84;5026291;28;20475;-54
2023/02/22 00:52:58;;;;;;;0.50;0.50;;;;;;;7.16;58.58;96760.53;5024842;28;20489;-54
2023/02/22 00:55:31;;;;;;;0.60;0.60;;;;;;;7.22;57.79;96765.41;5026075;28;20084;-56
2023/02/22 00:57:58;;;;;;;;;;;;;;;7.36;56.94;96760.28;5027002;28;20050;-53
2023/02/22 01:00:28;;;;;;;0.60;0.60;;;;;;;7.30;56.74;96778.22;5025286;28;20376;-54
2023/02/22 01:02:55;;;;;;;0.60;0.60;;;;;;;7.30;57.24;96782.94;5026100;28;20053;-54
2023/02/22 01:05:27;;;;;;;0.60;0.60;;;;;;;7.33;57.86;96774.75;5025373;28;20042;-53
2023/02/22 01:07:55;;;;;;;0.70;0.70;;;;;;;7.10;58.11;96751.72;5026026;28;20045;-56
2023/02/22 01:10:24;;;;;;;0.60;0.60;;;;;;;7.15;58.60;96758.94;5025197;28;20084;-56
2023/02/22 01:12:53;;;;;;;0.60;0.60;;;;;;;7.16;58.60;96755.81;5025135;28;20049;-55
2023/02/22 01:15:22;;;;;;;0.60;0.60;;;;;;;6.98;57.83;96705.03;5025145;28;20045;-56
2023/02/22 01:17:52;;;;;;;0.60;0.60;;;;;;;7.42;57.76;96758.84;5025711;28;20053;-53
2023/02/22 01:20:21;;;;;;;0.60;0.60;;;;;;;7.40;57.92;96754.84;5023783;28;20132;-56
2023/02/22 01:22:50;;;;;;;0.60;0.60;;;;;;;7.49;57.34;96747.97;5024957;28;20140;-54
2023/02/22 01:25:19;;;;;;;0.60;0.60;;;;;;;6.96;59.05;96767.91;5025318;28;20160;-56
2023/02/22 01:27:47;;;;;;;0.60;0.60;;;;;;;7.04;58.85;96742.16;5023439;28;20335;-54
2023/02/22 01:30:13;;;;;;;0.60;0.60;;;;;;;7.22;58.01;96759.13;5024592;28;20519;-54
2023/02/22 01:32:41;;;;;;;0.60;0.60;;;;;;;7.18;57.94;96731.47;5025018;28;20586;-54
2023/02/22 01:35:12;;;;;;;0.50;0.50;;;;;;;7.16;56.93;96735.75;5024187;28;20053;-54
2023/02/22 01:37:40;;;;;;;0.60;0.60;;;;;;;7.35;56.33;96747.63;5025464;28;20575;-53
2023/02/22 01:40:10;;;;;;;0.60;0.60;;;;;;;7.38;56.06;96752.44;5024732;28;20471;-54
2023/02/22 01:42:36;;;;;;;0.57;0.57;;;;;;;7.49;56.34;96759.00;5025232;28;20085;-56
2023/02/22 01:45:34;;;;;;;0.60;0.60;;;;;;;7.11;58.07;96758.84;5023513;28;20140;-54
2023/02/22 01:48:05;;;;;;;0.55;0.55;;;;;;;7.08;59.00;96748.53;5024635;28;20139;-54
2023/02/22 01:50:44;;;;;;;0.60;0.60;;;;;;;7.19;58.50;96754.31;5024100;28;20497;-54
2023/02/22 01:53:15;;;;;;;0.57;0.57;;;;;;;6.51;58.81;96673.13;5024699;28;20498;-53
2023/02/22 01:55:43;;;;;;;0.60;0.60;;;;;;;6.91;60.02;96754.38;5024522;28;20049;-56
2023/02/22 01:58:11;;;;;;;0.60;0.60;;;;;;;6.77;59.91;96715.47;5022710;28;20140;-56
2023/02/22 02:00:38;;;;;;;0.60;0.60;;;;;;;7.10;59.68;96746.22;5024464;28;20053;-54
2023/02/22 02:03:11;;;;;;;0.60;0.60;;;;;;;7.11;60.12;96758.84;5024439;28;20526;-57
2023/02/22 02:05:38;;;;;;;0.60;0.60;;;;;;;6.90;58.82;96758.31;5024035;28;20110;-57
2023/02/22 02:08:20;;;;;;;0.50;0.50;;;;;;;6.18;60.21;96706.38;5023241;28;20053;-56
2023/02/22 02:10:48;;;;;;;0.50;0.50;;;;;;;6.67;60.83;96762.78;5024284;28;20065;-54
2023/02/22 02:13:15;;;;;;;0.50;0.50;;;;;;;6.27;60.68;96696.06;5024574;28;20426;-53
2023/02/22 02:15:41;;;;;;;0.60;0.60;;;;;;;6.77;59.07;96764.22;5024405;28;20068;-55
2023/02/22 02:18:10;;;;;;;0.60;0.60;;;;;;;5.93;63.80;96773.59;5024314;28;20049;-55
2023/02/22 02:20:50;;;;;;;0.50;0.50;;;;;;;6.12;63.72;96782.03;5024226;28;20053;-56
2023/02/22 02:24:04;;;;;;;0.50;0.50;;;;;;;6.20;62.82;96772.84;5024293;28;20123;-57
2023/02/22 02:26:43;;;;;;;0.50;0.50;;;;;;;6.21;62.85;96774.47;5024364;28;20106;-55
2023/02/22 02:29:48;;;;;;;0.50;0.50;;;;;;;6.08;63.43;96770.94;5023999;28;20055;-54
2023/02/22 02:32:55;;;;;;;0.50;0.50;;;;;;;5.87;62.88;96753.81;5023012;28;20053;-56
2023/02/22 02:36:01;;;;;;;0.50;0.50;;;;;;;6.09;62.13;96782.72;5022453;28;20065;-56
2023/02/22 02:38:33;;;;;;;0.50;0.50;;;;;;;6.05;62.76;96779.84;5022711;28;20615;-56
2023/02/22 02:41:13;;;;;;;0.50;0.50;;;;;;;6.14;62.25;96768.75;5023122;28;20049;-54
2023/02/22 02:44:12;;;;;;;0.50;0.50;;;;;;;6.29;61.28;96791.97;5023897;28;20049;-55
2023/02/22 02:46:49;;;;;;;0.50;0.50;;;;;;;6.27;61.02;96784.06;5023309;28;20080;-56
2023/02/22 02:49:21;;;;;;;0.47;0.47;;;;;;;6.32;60.56;96781.06;5023523;28;20053;-54
2023/02/22 02:51:51;;;;;;;0.60;0.60;;;;;;;6.03;60.28;96751.13;5023695;28;20053;-56
2023/02/22 02:54:19;;;;;;;0.60;0.60;;;;;;;5.89;61.54;96778.19;5022493;28;20160;-53
2023/02/22 02:56:47;;;;;;;0.50;0.50;;;;;;;5.91;62.03;96776.69;5022348;28;20148;-56
2023/02/22 02:59:28;;;;;;;0.50;0.50;;;;;;;5.99;60.84;96777.72;5022143;28;20073;-57
2023/02/22 03:02:15;;;;;;;0.50;0.50;;;;;;;6.07;60.53;96785.81;5024090;28;20139;-54
2023/02/22 03:04:53;;;;;;;0.57;0.57;;;;;;;6.06;60.03;96788.91;5011344;28;20524;-54
2023/02/22 03:07:28;;;;;;;0.50;0.50;;;;;;;5.88;60.96;96771.09;5022899;28;20417;-54
2023/02/22 03:10:20;;;;;;;0.50;0.50;;;;;;;6.03;61.04;96790.44;5023608;28;20199;-56
2023/02/22 03:13:23;;;;;;;0.50;0.50;;;;;;;5.64;60.16;96738.91;5023658;28;20472;-53
2023/02/22 03:15:56;;;;;;;0.50;0.50;;;;;;;5.56;61.32;96774.78;5022606;28;20492;-53
2023/02/22 03:18:47;;;;;;;0.45;0.45;;;;;;;5.75;61.06;96783.22;5023578;28;20049;-54
2023/02/22 03:21:40;;;;;;;0.40;0.40;;;;;;;5.32;62.33;96752.81;5023028;28;20057;-53
2023/02/22 03:24:19;;;;;;;0.50;0.50;;;;;;;5.64;61.34;96782.09;5022348;28;20091;-56
2023/02/22 03:26:57;;;;;;;0.57;0.57;;;;;;;5.72;61.02;96779.22;5023448;28;20080;-54
2023/02/22 03:29:28;;;;;;;0.50;0.50;;;;;;;5.46;59.84;96714.81;5023360;28;20517;-54
2023/02/22 03:32:00;;;;;;;0.50;0.50;;;;;;;5.29;64.19;96802.91;5023597;28;20144;-57
2023/02/22 03:34:34;;;;;;;0.50;0.50;;;;;;;5.69;63.15;96798.34;5023275;28;20567;-53
2023/02/22 03:37:20;;;;;;;0.50;0.50;;;;;;;5.63;64.73;96791.47;5023366;28;20050;-56
2023/02/22 03:39:52;;;;;;;0.50;0.50;;;;;;;5.80;63.33;96796.75;5023707;28;20131;-53
2023/02/22 03:42:28;;;;;;;0.50;0.50;;;;;;;5.69;63.29;96774.41;5023436;28;20057;-56
2023/02/22 03:44:59;;;;;;;0.50;0.50;;;;;;;6.03;62.58;96803.38;5023417;28;20512;-56
2023/02/22 03:47:37;;;;;;;0.50;0.50;;;;;;;6.29;61.84;96801.00;5023661;28;20053;-56
2023/02/22 03:50:06;;;;;;;0.50;0.50;;;;;;;6.43;61.42;96793.16;5022177;28;20509;-56
2023/02/22 03:52:36;;;;;;;0.55;0.55;;;;;;;6.56;59.45;96789.19;5022601;28;20049;-56
2023/02/22 03:55:09;;;;;;;0.50;0.50;;;;;;;6.75;57.46;96805.84;5026311;28;20053;-56
2023/02/22 03:57:37;;;;;;;;;;;;;;;6.72;57.67;96792.78;5027587;28;20049;-56
2023/02/22 04:00:07;;;;;;;0.50;0.50;;;;;;;6.49;58.82;96797.28;5026618;28;20020;-56
2023/02/22 04:02:34;;;;;;;0.50;0.50;;;;;;;5.92;63.90;96804.97;5026304;28;20053;-53
2023/02/22 04:05:01;;;;;;;0.50;0.50;;;;;;;6.16;61.93;96797.47;5025564;28;20095;-53
2023/02/22 04:07:27;;;;;;;0.50;0.50;;;;;;;6.36;60.01;96801.22;5026295;28;20418;-57
2023/02/22 04:09:54;;;;;;;0.60;0.60;;;;;;;6.46;59.60;96791.66;5026359;28;20081;-56
2023/02/22 04:12:21;;;;;;;0.50;0.50;;;;;;;6.59;58.04;96796.75;5026519;28;20459;-56
2023/02/22 04:14:47;;;;;;;0.50;0.50;;;;;;;6.57;58.18;96793.56;5026637;28;20053;-54
2023/02/22 04:17:14;;;;;;;0.50;0.50;;;;;;;6.64;57.68;96793.75;5026575;28;20547;-56
2023/02/22 04:19:40;;;;;;;0.60;0.60;;;;;;;6.33;57.82;96740.59;5026455;28;20107;-53
2023/02/22 04:22:07;;;;;;;0.50;0.50;;;;;;;6.64;57.79;96785.50;5026067;28;20525;-57
2023/02/22 04:24:34;;;;;;;0.55;0.55;;;;;;;6.71;57.18;96788.47;5026331;28;20052;-54
2023/02/22 04:27:00;;;;;;;0.60;0.60;;;;;;;6.87;56.84;96805.00;5026431;28;20466;-54
2023/02/22 04:29:27;;;;;;;0.52;0.52;;;;;;;6.77;56.48;96798.06;5025838;28;20139;-56
2023/02/22 04:31:54;;;;;;;0.60;0.60;;;;;;;6.61;58.53;96799.19;5026382;28;20049;-55
2023/02/22 04:34:20;;;;;;;0.60;0.60;;;;;;;6.68;58.57;96802.13;5026500;28;20140;-54
2023/02/22 04:36:47;;;;;;;0.50;0.50;;;;;;;6.68;58.26;96800.16;5025702;28;20140;-54
2023/02/22 04:39:13;;;;;;;0.50;0.50;;;;;;;6.71;58.09;96788.47;5026406;28;20115;-56
2023/02/22 04:41:40;;;;;;;0.50;0.50;;;;;;;6.66;57.66;96796.97;5024883;28;20065;-57
2023/02/22 04:44:07;;;;;;;0.60;0.60;;;;;;;6.52;58.59;96799.31;5025928;28;20422;-56
2023/02/22 04:46:34;;;;;;;0.60;0.60;;;;;;;6.43;60.94;96789.63;5025573;28;20112;-55
2023/02/22 04:49:01;;;;;;;0.50;0.50;;;;;;;6.02;61.10;96727.53;5025808;28;20115;-56
2023/02/22 04:51:27;;;;;;;0.55;0.55;;;;;;;6.40;59.89;96771.88;5025828;28;20049;-54
2023/02/22 04:53:55;;;;;;;0.50;0.50;;;;;;;6.04;63.00;96802.19;5025602;28;20132;-55
2023/02/22 04:56:22;;;;;;;0.60;0.60;;;;;;;6.07;62.57;96807.00;5024861;28;20057;-56
2023/02/22 04:58:49;;;;;;;0.52;0.52;;;;;;;6.17;62.11;96798.28;5025438;28;20061;-53
2023/02/22 05:01:15;;;;;;;0.52;0.52;;;;;;;6.22;62.51;96852.22;5025761;28;20056;-56
2023/02/22 05:03:43;;;;;;;0.50;0.50;;;;;;;6.14;61.97;96779.72;5025490;28;20064;-54
2023/02/22 05:06:11;;;;;;;0.50;0.50;;;;;;;5.88;62.04;96765.63;5024448;28;20103;-55
2023/02/22 05:08:39;;;;;;;0.50;0.50;;;;;;;6.13;62.74;96811.13;5025015;28;20512;-54
2023/02/22 05:11:05;;;;;;;0.57;0.57;;;;;;;6.25;62.45;96802.84;5025279;28;20625;-54
2023/02/22 05:13:32;;;;;;;0.50;0.50;;;;;;;6.05;62.40;96814.81;5025386;28;20058;-53
2023/02/22 05:15:58;;;;;;;0.60;0.60;;;;;;;6.21;62.76;96823.97;5025203;28;20686;-56
2023/02/22 05:18:25;;;;;;;0.50;0.50;;;;;;;6.27;62.93;96803.31;5025730;28;20054;-56
2023/02/22 05:20:52;;;;;;;0.50;0.50;;;;;;;6.32;62.82;96825.06;5025608;28;20089;-57
2023/02/22 05:23:18;;;;;;;0.50;0.50;;;;;;;5.91;61.88;96792.41;5024543;28;20212;-55
2023/02/22 05:25:45;;;;;;;0.50;0.50;;;;;;;6.29;60.08;96809.28;5025951;28;20099;-56
2023/02/22 05:28:13;;;;;;;0.50;0.50;;;;;;;6.24;60.01;96812.25;5023912;28;20120;-54
2023/02/22 05:30:40;;;;;;;0.60;0.60;;;;;;;6.34;59.77;96817.25;5024870;28;20093;-56
2023/02/22 05:33:08;;;;;;;0.52;0.52;;;;;;;6.41;59.16;96822.16;5022541;28;20041;-53
2023/02/22 05:35:36;;;;;;;0.52;0.52;;;;;;;6.31;59.45;96817.94;5023619;28;20072;-56
2023/02/22 05:38:03;;;;;;;0.50;0.50;;;;;;;6.44;58.42;96843.47;5025018;28;20372;-53
2023/02/22 05:40:30;;;;;;;0.52;0.52;;;;;;;6.66;57.39;96813.47;5024679;28;20107;-55
2023/02/22 05:42:58;;;;;;;0.60;0.60;;;;;;;6.28;56.98;96746.34;5024391;28;20103;-56
2023/02/22 05:45:26;;;;;;;0.52;0.52;;;;;;;6.80;56.01;96840.56;5022864;28;20057;-54
2023/02/22 05:47:53;;;;;;;0.60;0.60;;;;;;;6.44;56.41;96767.25;5025088;28;20088;-54
2023/02/22 05:50:21;;;;;;;0.60;0.60;;;;;;;6.96;55.99;96828.47;5024540;28;20114;-55
2023/02/22 05:52:48;;;;;;;0.52;0.52;;;;;;;4.93;55.82;96481.81;5024186;28;20057;-54
2023/02/22 05:55:17;;;;;;;0.50;0.50;;;;;;;7.15;56.05;96842.38;5022370;28;20491;-52
2023/02/22 05:57:43;;;;;;;0.60;0.60;;;;;;;7.28;55.79;96841.16;5024243;28;20050;-53
2023/02/22 06:00:15;;;;;;;0.60;0.60;;;;;;;7.27;55.85;96836.78;5024646;28;20151;-53
2023/02/22 06:02:42;;;;;;;0.60;0.60;;;;;;;7.25;55.43;96841.84;5024726;28;20049;-54
2023/02/22 06:05:09;;;;;;;0.60;0.60;;;;;;;7.38;56.39;96846.09;5023720;28;20242;-56
2023/02/22 06:07:35;;;;;;;0.60;0.60;;;;;;;7.68;55.31;96838.22;5024524;28;20111;-55
2023/02/22 06:10:02;;;;;;;0.60;0.60;;;;;;;7.44;54.40;96780.53;5023851;28;20053;-56
2023/02/22 06:12:29;;;;;;;0.60;0.60;;;;;;;7.29;53.46;96710.50;5022959;28;20149;-56
2023/02/22 06:14:56;;;;;;;0.60;0.60;;;;;;;8.07;55.26;96845.47;5024348;28;20496;-55
2023/02/22 06:17:22;;;;;;;0.60;0.60;;;;;;;7.94;55.59;96837.63;5021652;28;20115;-54
2023/02/22 06:19:49;;;;;;;0.60;0.60;;;;;;;8.16;54.83;96842.50;5023604;28;20187;-56
2023/02/22 06:22:18;;;;;;;0.60;0.60;;;;;;;8.38;52.84;96861.16;5024406;28;20127;-54
2023/02/22 06:24:44;;;;;;;0.60;0.60;;;;;;;8.55;52.81;96838.69;5023649;28;20200;-56
2023/02/22 06:27:11;;;;;;;0.60;0.60;;;;;;;8.84;51.81;96857.44;5022288;28;20071;-54
2023/02/22 06:29:38;;;;;;;0.70;0.70;;;;;;;7.71;53.47;96700.44;5023702;28;20582;-55
2023/02/22 06:32:05;;;;;;;0.70;0.70;;;;;;;9.03;53.58;96844.41;5024321;28;20122;-56
2023/02/22 06:34:31;;;;;;;0.60;0.60;;;;;;;9.25;51.96;96848.38;5023639;28;20045;-57
2023/02/22 06:36:59;;;;;;;0.70;0.70;;;;;;;9.49;51.91;96834.22;5023646;28;20084;-57
2023/02/22 06:39:26;;;;;;;0.70;0.70;;;;;;;9.38;52.31;96777.94;5022388;28;20049;-55
2023/02/22 06:41:55;;;;;;;0.80;0.80;;;;;;;9.40;50.65;96781.16;5024319;28;20042;-55
2023/02/22 06:44:22;;;;;;;0.70;0.70;;;;;;;9.91;49.65;96801.72;5023473;28;20049;-54
2023/02/22 06:46:50;;;;;;;0.75;0.75;;;;;;;10.14;49.87;96843.22;5024099;28;20418;-55
2023/02/22 06:49:18;;;;;;;0.80;0.80;;;;;;;10.48;49.88;96812.47;5022272;28;20046;-57
2023/02/22 06:51:45;;;;;;;0.80;0.80;;;;;;;10.91;47.85;96832.44;5014532;28;20057;-56
2023/02/22 06:54:13;;;;;;;0.80;0.80;;;;;;;11.25;47.81;96845.09;5018639;28;20489;-52
2023/02/22 06:56:39;;;;;;;0.90;0.90;;;;;;;11.36;46.68;96804.41;5023734;28;20057;-54
2023/02/22 06:59:07;;;;;;;1.00;1.00;;;;;;;11.26;46.57;96738.53;5022094;28;20127;-56
2023/02/22 07:01:34;;;;;;;0.80;0.80;;;;;;;12.06;45.98;96860.59;5022346;28;20045;-60
2023/02/22 07:04:01;;;;;;;1.00;1.00;;;;;;;12.07;46.65;96806.66;5019769;28;20049;-57
2023/02/22 07:06:27;;;;;;;1.10;1.10;;;;;;;12.12;46.30;96775.75;5010186;28;20062;-57
2023/02/22 07:08:54;;;;;;;1.10;1.10;;;;;;;12.81;46.14;96832.91;5018344;28;20122;-57
2023/02/22 07:11:21;;;;;;;1.10;1.10;;;;;;;12.92;44.62;96817.06;5021986;28;20192;-58
2023/02/22 07:13:47;;;;;;;1.08;1.08;;;;;;;12.91;44.19;96823.81;5017936;28;20057;-59
2023/02/22 07:16:14;;;;;;;1.10;1.10;;;;;;;12.71;43.67;96769.72;5023305;28;20123;-56
2023/02/22 07:18:41;;;;;;;1.10;1.10;;;;;;;13.40;43.75;96814.88;5018428;28;20124;-54
2023/02/22 07:21:08;;;;;;;1.00;1.00;;;;;;;13.23;44.15;96823.97;5011494;28;20057;-56
2023/02/22 07:23:35;;;;;;;1.15;1.15;;;;;;;13.28;44.49;96826.34;5018423;28;20544;-55
2023/02/22 07:26:04;;;;;;;1.10;1.10;;;;;;;13.52;43.91;96815.28;5024690;28;20136;-55
2023/02/22 07:28:30;;;;;;;1.20;1.20;;;;;;;13.50;43.72;96762.00;5025302;28;20049;-54
2023/02/22 07:30:57;;;;;;;1.30;1.30;;;;;;;13.90;43.76;96796.22;5026636;28;20061;-57
2023/02/22 07:33:25;;;;;;;1.25;1.25;;;;;;;14.30;43.33;96804.19;5021655;28;21006;-57
2023/02/22 07:35:52;;;;;;;1.23;1.23;;;;;;;14.65;43.00;96832.00;5023867;28;20085;-55
2023/02/22 07:38:19;;;;;;;1.30;1.30;;;;;;;14.90;41.96;96800.06;5026716;28;20045;-57
2023/02/22 07:40:46;;;;;;;1.25;1.25;;;;;;;15.25;41.85;96804.69;5019889;28;20092;-55
2023/02/22 07:43:19;;;;;;;1.40;1.40;;;;;;;15.55;40.67;96804.16;5026707;28;20088;-55
2023/02/22 07:45:47;;;;;;;1.40;1.40;;;;;;;15.72;40.01;96801.25;5026801;28;20061;-55
2023/02/22 07:48:15;;;;;;;1.25;1.25;;;;;;;15.69;39.61;96745.41;5014839;28;20112;-59
2023/02/22 07:50:43;;;;;;;1.60;1.60;;;;;;;15.84;38.84;96739.28;5017273;28;20123;-55
2023/02/22 07:53:19;;;;;;;1.60;1.60;;;;;;;16.45;38.38;96838.97;5017126;28;20520;-57
2023/02/22 07:55:49;;;;;;;1.80;1.80;;;;;;;16.60;38.18;96784.50;5021235;28;20065;-54
2023/02/22 07:58:20;;;;;;;1.60;1.60;;;;;;;16.81;38.06;96763.09;5021050;28;20045;-54
2023/02/22 08:00:49;;;;;;;1.77;1.77;;;;;;;16.67;38.16;96743.69;5026467;28;20045;-55
2023/02/22 08:03:20;;;;;;;1.80;1.80;;;;;;;17.01;37.95;96775.28;5024740;28;20064;-57
2023/02/22 08:05:55;;;;;;;1.67;1.67;;;;;;;16.87;37.29;96775.41;5021613;28;20503;-58
2023/02/22 08:08:22;;;;;;;1.63;1.63;;;;;;;17.16;37.51;96776.66;5021684;28;20050;-56
2023/02/22 08:10:49;;;;;;;1.65;1.65;;;;;;;17.44;37.02;96770.66;5024391;28;20501;-57
2023/02/22 08:13:18;;;;;;;1.88;1.88;;;;;;;17.71;36.31;96765.91;5026138;28;20151;-57
2023/02/22 08:15:45;;;;;;;1.80;1.80;;;;;;;17.66;36.25;96761.56;5025708;28;20107;-56
2023/02/22 08:18:18;;;;;;;1.67;1.67;;;;;;;17.98;36.07;96758.25;5016305;28;20080;-58
2023/02/22 08:20:47;;;;;;;1.98;1.98;;;;;;;18.18;35.81;96764.72;5013199;28;20064;-56
2023/02/22 08:23:15;;;;;;;1.90;1.90;;;;;;;18.18;36.41;96717.06;5025865;28;20049;-59
2023/02/22 08:25:42;;;;;;;2.03;2.03;;;;;;;18.08;35.58;96701.22;5026773;28;20041;-58
2023/02/22 08:28:13;;;;;;;2.17;2.17;;;;;;;18.54;35.50;96762.88;5005663;28;20088;-58
2023/02/22 08:30:43;;;;;;;2.00;2.00;;;;;;;18.32;35.36;96714.00;5021869;28;20064;-55
2023/02/22 08:33:13;;;;;;;2.10;2.10;;;;;;;18.69;35.15;96744.59;5022738;28;20191;-58
2023/02/22 08:35:40;;;;;;;2.10;2.10;;;;;;;18.90;35.08;96765.81;5025069;28;20053;-60
2023/02/22 08:38:13;;;;;;;2.28;2.28;;;;;;;18.70;34.81;96734.94;5029983;28;20140;-57
2023/02/22 08:40:40;;;;;;;2.33;2.33;;;;;;;19.13;34.41;96760.91;5024945;28;20081;-59
2023/02/22 08:43:07;;;;;;;2.20;2.20;;;;;;;19.19;34.69;96750.75;5023225;28;20061;-59
2023/02/22 08:45:34;;;;;;;2.30;2.30;;;;;;;19.28;34.29;96734.13;5021859;28;20057;-58
2023/02/22 08:48:01;;;;;;;1.88;1.88;;;;;;;19.31;33.99;96733.28;5019213;28;20060;-58
2023/02/22 08:50:32;;;;;;;2.05;2.05;;;;;;;19.71;32.65;96753.66;5022031;28;20619;-56
2023/02/22 08:53:00;;;;;;;2.55;2.45;;;;;;;19.57;32.24;96725.09;5021601;28;20052;-58
2023/02/22 08:55:33;;;;;;;2.30;2.30;;;;;;;19.06;30.50;96668.41;5011623;28;20524;-57
2023/02/22 08:58:01;;;;;;;2.08;2.08;;;;;;;19.47;30.44;96744.53;5005753;28;20066;-58
2023/02/22 09:00:31;;;;;;;2.30;2.30;;;;;;;19.43;31.02;96743.84;5019385;28;20239;-56
2023/02/22 09:03:02;;;;;;;2.17;2.17;;;;;;;18.84;30.54;96633.59;5024897;28;20147;-56
2023/02/22 09:05:30;;;;;;;2.10;2.10;;;;;;;19.28;30.42;96748.19;5024974;28;20111;-57
2023/02/22 09:07:57;;;;;;;2.20;2.20;;;;;;;19.32;30.43;96748.91;5022926;28;20146;-57
2023/02/22 09:10:28;;;;;;;2.00;2.00;;;;;;;19.19;30.70;96727.53;5022675;28;20049;-57
2023/02/22 09:12:55;;;;;;;2.30;2.30;;;;;;;19.44;30.84;96751.03;5023295;28;20536;-57
2023/02/22 09:15:24;;;;;;;2.22;2.22;;;;;;;19.40;30.73;96750.34;5018490;28;20069;-56
2023/02/22 09:17:52;;;;;;;2.10;2.10;;;;;;;19.33;30.79;96755.31;5024974;28;20535;-55
2023/02/22 09:20:21;;;;;;;2.08;2.08;;;;;;;19.41;30.58;96757.53;5021138;28;20045;-57
2023/02/22 09:22:48;;;;;;;2.20;2.20;;;;;;;19.50;30.18;96743.69;5014334;28;20041;-56
2023/02/22 09:25:17;;;;;;;2.20;2.20;;;;;;;19.29;30.11;96749.78;5011102;28;20061;-57
2023/02/22 09:27:47;;;;;;;2.00;2.00;;;;;;;19.47;30.64;96743.78;5014186;28;20057;-54
2023/02/22 09:30:33;;;;;;;2.03;2.03;;;;;;;19.48;30.90;96723.66;5022360;28;20136;-55
2023/02/22 09:33:04;;;;;;;2.20;2.20;;;;;;;19.54;30.80;96726.72;5022937;28;21406;-54
2023/02/22 09:35:34;;;;;;;2.10;2.10;;;;;;;19.69;30.25;96722.38;5025162;28;20088;-57
2023/02/22 09:38:05;;;;;;;2.05;2.05;;;;;;;19.51;30.43;96722.78;5005541;28;20061;-56
2023/02/22 09:40:39;;;;;;;2.00;2.00;;;;;;;19.68;30.20;96736.88;5018158;28;20064;-56
2023/02/22 09:43:34;;;;;;;2.28;2.28;;;;;;;19.68;30.58;96737.63;5019962;28;20071;-56
2023/02/22 09:46:27;;;;;;;2.10;2.10;;;;;;;19.76;31.28;96732.66;5018392;28;20089;-58
2023/02/22 09:49:01;;;;;;;2.00;2.00;;;;;;;19.71;30.59;96741.63;5009326;28;20073;-56
2023/02/22 09:51:34;;;;;;;2.30;2.30;;;;;;;19.73;30.78;96733.53;5023363;28;20061;-58
2023/02/22 09:54:03;;;;;;;2.15;2.15;;;;;;;19.62;30.88;96741.44;5022904;28;20422;-55
2023/02/22 09:56:32;;;;;;;2.30;2.30;;;;;;;19.69;30.91;96716.75;5023940;28;20119;-58
2023/02/22 09:59:05;;;;;;;2.30;2.30;;;;;;;19.93;30.58;96731.44;5021562;28;20063;-55
2023/02/22 10:01:35;;;;;;;2.27;2.27;;;;;;;19.99;31.02;96724.06;5024565;28;20053;-57
2023/02/22 10:04:21;;;;;;;2.10;2.10;;;;;;;19.33;30.93;96621.28;5022216;28;20041;-57
2023/02/22 10:07:14;;;;;;;2.20;2.20;;;;;;;19.95;30.66;96720.56;5021230;28;20049;-55
2023/02/22 10:09:42;;;;;;;2.03;2.03;;;;;;;20.14;30.33;96716.88;5015775;28;20057;-56
2023/02/22 10:12:21;;;;;;;2.70;2.60;;;;;;;20.18;30.16;96717.56;5024684;28;20420;-59
2023/02/22 10:15:00;;;;;;;2.10;2.10;;;;;;;20.11;30.27;96709.28;5022485;28;20111;-55
2023/02/22 10:17:28;;;;;;;2.28;2.28;;;;;;;20.33;30.33;96716.75;5024132;28;20431;-57
2023/02/22 10:20:22;;;;;;;1.90;1.90;;;;;;;20.43;29.87;96721.31;5023679;28;20496;-56
2023/02/22 10:23:13;;;;;;;2.17;2.17;;;;;;;20.63;29.77;96713.53;5023211;28;20093;-57
2023/02/22 10:25:43;;;;;;;2.58;2.47;;;;;;;20.56;29.42;96667.91;5022905;28;20086;-58
2023/02/22 10:28:25;;;;;;;2.30;2.30;;;;;;;20.35;29.34;96629.09;5039086;28;20701;-56
2023/02/22 10:31:00;;;;;;;2.30;2.30;;;;;;;21.02;29.15;96695.56;5024238;28;20550;-56
2023/02/22 10:33:42;;;;;;;2.50;2.40;;;;;;;20.83;29.18;96704.94;5021959;28;20055;-57
2023/02/22 10:36:19;;;;;;;2.28;2.28;;;;;;;20.78;28.98;96674.50;5024221;28;20053;-57
2023/02/22 10:39:06;;;;;;;2.33;2.33;;;;;;;20.96;28.67;96686.06;5023835;28;20041;-55
2023/02/22 10:41:37;;;;;;;2.30;2.28;;;;;;;21.07;28.62;96683.72;5023971;28;20315;-56
2023/02/22 10:44:04;;;;;;;2.15;2.15;;;;;;;21.07;28.95;96649.16;5022063;28;20045;-56
2023/02/22 10:46:33;;;;;;;2.30;2.30;;;;;;;21.19;28.83;96666.06;5023631;28;20064;-57
2023/02/22 10:49:06;;;;;;;2.17;2.17;;;;;;;21.28;28.48;96662.56;5029871;28;20102;-57
2023/02/22 10:51:33;;;;;;;2.20;2.20;;;;;;;21.20;28.40;96656.34;5038511;28;20063;-56
2023/02/22 10:54:08;;;;;;;2.38;2.38;;;;;;;21.12;28.80;96659.84;5013442;28;20051;-58
2023/02/22 10:56:46;;;;;;;2.50;2.40;;;;;;;21.05;29.25;96654.44;5029315;28;20107;-57
2023/02/22 10:59:31;;;;;;;2.40;2.30;;;;;;;20.95;28.95;96657.09;5015404;28;20045;-57
2023/02/22 11:02:00;;;;;;;2.10;2.10;;;;;;;20.90;28.93;96649.19;5016727;28;20107;-58
2023/02/22 11:04:26;;;;;;;2.72;2.63;;;;;;;21.00;28.81;96652.97;5020894;28;20053;-54
2023/02/22 11:06:59;;;;;;;2.30;2.30;;;;;;;21.28;28.27;96640.00;5015728;28;20140;-54
2023/02/22 11:09:27;;;;;;;2.50;2.40;;;;;;;21.42;28.46;96651.63;5023324;28;20126;-56
2023/02/22 11:12:16;;;;;;;2.10;2.10;;;;;;;20.65;28.39;96535.75;5007038;28;20088;-55
2023/02/22 11:14:42;;;;;;;2.47;2.38;;;;;;;21.09;28.75;96627.72;5015741;28;20118;-59
2023/02/22 11:17:13;;;;;;;2.50;2.40;;;;;;;21.24;28.47;96600.69;5011892;28;20050;-59
2023/02/22 11:19:46;;;;;;;2.55;2.45;;;;;;;21.10;28.52;96629.31;5014071;28;20099;-54
2023/02/22 11:22:21;;;;;;;2.60;2.50;;;;;;;21.26;28.90;96626.38;5018925;28;20046;-57
2023/02/22 11:24:53;;;;;;;2.50;2.40;;;;;;;21.38;28.24;96625.59;5010624;28;20104;-54
2023/02/22 11:27:32;;;;;;;2.55;2.45;;;;;;;21.31;28.20;96611.72;5032995;28;20049;-57
2023/02/22 11:30:25;;;;;;;2.20;2.20;;;;;;;21.37;28.16;96621.19;5012437;28;20129;-54
2023/02/22 11:32:53;;;;;;;2.45;2.35;;;;;;;21.43;28.53;96608.13;5003381;28;20049;-54
2023/02/22 11:35:26;;;;;;;2.60;2.50;;;;;;;21.59;28.28;96627.72;5033662;28;20061;-56
2023/02/22 11:38:09;;;;;;;2.60;2.50;;;;;;;20.47;28.75;96535.50;5023544;28;20119;-55
2023/02/22 11:40:35;;;;;;;2.70;2.60;;;;;;;21.38;28.53;96605.88;5022501;28;20343;-56
2023/02/22 11:43:17;;;;;;;2.55;2.45;;;;;;;21.53;28.20;96623.91;5021675;28;20084;-55
2023/02/22 11:46:01;;;;;;;2.50;2.40;;;;;;;21.28;28.53;96618.28;5022449;28;20464;-56
2023/02/22 11:48:35;;;;;;;2.33;2.30;;;;;;;21.05;28.62;96615.00;5023516;28;20058;-55
2023/02/22 11:51:12;;;;;;;2.20;2.20;;;;;;;21.13;28.47;96586.16;5023299;28;20085;-56
2023/02/22 11:54:03;;;;;;;2.78;2.67;;;;;;;21.26;28.78;96603.84;5023303;28;20148;-55
2023/02/22 11:56:38;;;;;;;2.70;2.60;;;;;;;21.01;29.37;96558.00;5023466;28;20144;-59
2023/02/22 11:59:33;;;;;;;2.72;2.63;;;;;;;21.35;28.83;96603.16;5022675;28;20077;-55